sensor_id;sensor_type;location;lat;lon;timestamp;pressure;altitude;pressure_sealevel;temperature;humidity
37856;BME280;23694;43.274;26.924;2023-02-01T00:02:03;98796.69;;;1.50;84.37
37856;BME280;23694;43.274;26.924;2023-02-01T00:04:29;98800.66;;;1.60;84.23
37856;BME280;23694;43.274;26.924;2023-02-01T00:06:55;98807.50;;;1.61;84.40
37856;BME280;23694;43.274;26.924;2023-02-01T00:09:21;98810.81;;;1.65;84.87
37856;BME280;23694;43.274;26.924;2023-02-01T00:11:47;98806.81;;;1.56;85.66
37856;BME280;23694;43.274;26.924;2023-02-01T00:14:13;98816.28;;;1.55;86.32
37856;BME280;23694;43.274;26.924;2023-02-01T00:16:39;98814.19;;;1.42;87.54
37856;BME280;23694;43.274;26.924;2023-02-01T00:19:14;98809.91;;;1.41;88.15
37856;BME280;23694;43.274;26.924;2023-02-01T00:21:41;98805.69;;;1.38;88.85
37856;BME280;23694;43.274;26.924;2023-02-01T00:24:08;98799.28;;;1.23;90.22
37856;BME280;23694;43.274;26.924;2023-02-01T00:26:38;98813.03;;;1.24;91.02
37856;BME280;23694;43.274;26.924;2023-02-01T00:29:16;98809.59;;;1.23;91.74
37856;BME280;23694;43.274;26.924;2023-02-01T00:31:44;98811.53;;;1.17;93.03
37856;BME280;23694;43.274;26.924;2023-02-01T00:34:15;98812.72;;;1.07;93.86
37856;BME280;23694;43.274;26.924;2023-02-01T00:36:42;98807.53;;;1.08;94.84
37856;BME280;23694;43.274;26.924;2023-02-01T00:39:09;98803.94;;;1.12;95.08
37856;BME280;23694;43.274;26.924;2023-02-01T00:41:36;98807.53;;;1.08;95.95
37856;BME280;23694;43.274;26.924;2023-02-01T00:44:02;98819.78;;;1.02;96.77
37856;BME280;23694;43.274;26.924;2023-02-01T00:46:29;98823.09;;;1.05;96.99
37856;BME280;23694;43.274;26.924;2023-02-01T00:48:55;98808.63;;;1.01;96.99
37856;BME280;23694;43.274;26.924;2023-02-01T00:51:25;98820.66;;;1.01;97.24
37856;BME280;23694;43.274;26.924;2023-02-01T00:53:52;98810.59;;;0.93;98.28
37856;BME280;23694;43.274;26.924;2023-02-01T00:56:19;98820.78;;;0.98;98.20
37856;BME280;23694;43.274;26.924;2023-02-01T00:58:45;98809.66;;;0.95;98.54
37856;BME280;23694;43.274;26.924;2023-02-01T01:01:17;98813.41;;;0.85;99.21
37856;BME280;23694;43.274;26.924;2023-02-01T01:03:48;98808.34;;;0.82;99.49
37856;BME280;23694;43.274;26.924;2023-02-01T01:06:19;98809.00;;;0.89;98.92
37856;BME280;23694;43.274;26.924;2023-02-01T01:08:46;98814.13;;;0.90;98.58
37856;BME280;23694;43.274;26.924;2023-02-01T01:11:19;98812.44;;;0.89;98.37
37856;BME280;23694;43.274;26.924;2023-02-01T01:13:46;98805.53;;;0.90;98.85
37856;BME280;23694;43.274;26.924;2023-02-01T01:16:13;98809.06;;;0.87;98.70
37856;BME280;23694;43.274;26.924;2023-02-01T01:18:40;98806.56;;;0.84;98.96
37856;BME280;23694;43.274;26.924;2023-02-01T01:21:07;98808.44;;;0.79;98.96
37856;BME280;23694;43.274;26.924;2023-02-01T01:23:34;98811.91;;;0.78;99.32
37856;BME280;23694;43.274;26.924;2023-02-01T01:26:00;98815.25;;;0.82;98.98
37856;BME280;23694;43.274;26.924;2023-02-01T01:28:30;98809.38;;;0.77;99.28
37856;BME280;23694;43.274;26.924;2023-02-01T01:30:56;98817.06;;;0.78;99.11
37856;BME280;23694;43.274;26.924;2023-02-01T01:33:22;98812.91;;;0.74;99.00
37856;BME280;23694;43.274;26.924;2023-02-01T01:35:48;98806.88;;;0.75;98.83
37856;BME280;23694;43.274;26.924;2023-02-01T01:38:14;98803.28;;;0.79;98.82
37856;BME280;23694;43.274;26.924;2023-02-01T01:40:44;98810.44;;;0.71;98.88
37856;BME280;23694;43.274;26.924;2023-02-01T01:43:15;98809.78;;;0.63;99.39
37856;BME280;23694;43.274;26.924;2023-02-01T01:45:42;98799.22;;;0.72;99.45
37856;BME280;23694;43.274;26.924;2023-02-01T01:50:51;98793.56;;;0.59;100.00
37856;BME280;23694;43.274;26.924;2023-02-01T01:53:25;98799.47;;;0.63;99.78
37856;BME280;23694;43.274;26.924;2023-02-01T01:55:53;98796.59;;;0.74;99.26
37856;BME280;23694;43.274;26.924;2023-02-01T01:58:24;98799.97;;;0.76;98.80
37856;BME280;23694;43.274;26.924;2023-02-01T02:00:52;98798.97;;;0.80;98.62
37856;BME280;23694;43.274;26.924;2023-02-01T02:03:25;98801.00;;;0.70;99.33
37856;BME280;23694;43.274;26.924;2023-02-01T02:05:55;98803.72;;;0.66;99.24
37856;BME280;23694;43.274;26.924;2023-02-01T02:08:25;98798.59;;;0.64;99.28
37856;BME280;23694;43.274;26.924;2023-02-01T02:10:52;98792.63;;;0.62;99.09
37856;BME280;23694;43.274;26.924;2023-02-01T02:13:32;98789.00;;;0.69;99.32
37856;BME280;23694;43.274;26.924;2023-02-01T02:36:09;98800.31;;;0.63;97.68
37856;BME280;23694;43.274;26.924;2023-02-01T02:41:28;98798.97;;;0.52;98.18
37856;BME280;23694;43.274;26.924;2023-02-01T02:50:27;98812.13;;;0.43;98.22
37856;BME280;23694;43.274;26.924;2023-02-01T02:53:19;98808.59;;;0.45;98.02
37856;BME280;23694;43.274;26.924;2023-02-01T02:56:09;98813.53;;;0.53;98.25
37856;BME280;23694;43.274;26.924;2023-02-01T02:58:55;98818.22;;;0.40;98.55
37856;BME280;23694;43.274;26.924;2023-02-01T03:01:40;98815.69;;;0.39;98.60
37856;BME280;23694;43.274;26.924;2023-02-01T03:04:25;98814.88;;;0.37;99.10
37856;BME280;23694;43.274;26.924;2023-02-01T03:06:52;98821.94;;;0.30;99.38
37856;BME280;23694;43.274;26.924;2023-02-01T03:09:31;98818.34;;;0.36;99.39
37856;BME280;23694;43.274;26.924;2023-02-01T03:12:05;98822.88;;;0.27;99.60
37856;BME280;23694;43.274;26.924;2023-02-01T03:14:57;98820.13;;;0.34;99.82
37856;BME280;23694;43.274;26.924;2023-02-01T03:17:29;98821.69;;;0.39;99.66
37856;BME280;23694;43.274;26.924;2023-02-01T03:20:01;98825.22;;;0.35;99.45
37856;BME280;23694;43.274;26.924;2023-02-01T03:22:28;98822.56;;;0.38;99.74
37856;BME280;23694;43.274;26.924;2023-02-01T03:25:09;98814.88;;;0.37;99.97
37856;BME280;23694;43.274;26.924;2023-02-01T03:27:42;98821.69;;;0.39;99.85
37856;BME280;23694;43.274;26.924;2023-02-01T03:30:21;98819.94;;;0.40;100.00
37856;BME280;23694;43.274;26.924;2023-02-01T03:32:50;98819.19;;;0.36;99.90
37856;BME280;23694;43.274;26.924;2023-02-01T03:38:27;98825.91;;;0.42;99.71
37856;BME280;23694;43.274;26.924;2023-02-01T03:41:20;98822.47;;;0.41;99.47
37856;BME280;23694;43.274;26.924;2023-02-01T03:44:16;98820.13;;;0.34;99.88
37856;BME280;23694;43.274;26.924;2023-02-01T03:46:51;98833.09;;;0.30;100.00
37856;BME280;23694;43.274;26.924;2023-02-01T03:49:27;98827.31;;;0.22;100.00
37856;BME280;23694;43.274;26.924;2023-02-01T03:51:56;98823.75;;;0.26;100.00
37856;BME280;23694;43.274;26.924;2023-02-01T03:54:24;98836.56;;;0.29;100.00
37856;BME280;23694;43.274;26.924;2023-02-01T03:56:52;98836.59;;;0.28;100.00
37856;BME280;23694;43.274;26.924;2023-02-01T03:59:19;98846.06;;;0.27;99.73
37856;BME280;23694;43.274;26.924;2023-02-01T04:01:45;98845.34;;;0.22;100.00
37856;BME280;23694;43.274;26.924;2023-02-01T04:04:11;98845.22;;;0.27;100.00
37856;BME280;23694;43.274;26.924;2023-02-01T04:06:47;98849.69;;;0.20;100.00
37856;BME280;23694;43.274;26.924;2023-02-01T04:09:13;98847.38;;;0.11;100.00
37856;BME280;23694;43.274;26.924;2023-02-01T04:11:39;98852.28;;;0.20;100.00
37856;BME280;23694;43.274;26.924;2023-02-01T04:14:05;98843.53;;;0.26;100.00
37856;BME280;23694;43.274;26.924;2023-02-01T04:16:32;98847.78;;;0.27;100.00
37856;BME280;23694;43.274;26.924;2023-02-01T04:18:58;98845.41;;;0.21;100.00
37856;BME280;23694;43.274;26.924;2023-02-01T04:21:25;98858.94;;;0.27;100.00
37856;BME280;23694;43.274;26.924;2023-02-01T04:23:52;98850.38;;;0.27;100.00
37856;BME280;23694;43.274;26.924;2023-02-01T04:26:18;98860.66;;;0.27;100.00
37856;BME280;23694;43.274;26.924;2023-02-01T04:28:45;98864.19;;;0.24;100.00
37856;BME280;23694;43.274;26.924;2023-02-01T04:31:15;98853.88;;;0.24;100.00
37856;BME280;23694;43.274;26.924;2023-02-01T04:33:41;98857.22;;;0.28;99.80
37856;BME280;23694;43.274;26.924;2023-02-01T04:36:08;98854.81;;;0.22;100.00
37856;BME280;23694;43.274;26.924;2023-02-01T04:38:34;98862.41;;;0.26;99.94
37856;BME280;23694;43.274;26.924;2023-02-01T04:41:00;98854.91;;;0.19;99.68
37856;BME280;23694;43.274;26.924;2023-02-01T04:43:26;98861.03;;;0.15;99.98
37856;BME280;23694;43.274;26.924;2023-02-01T04:45:52;98866.03;;;0.19;99.99
37856;BME280;23694;43.274;26.924;2023-02-01T04:48:20;98866.84;;;0.21;99.90
37856;BME280;23694;43.274;26.924;2023-02-01T04:50:48;98868.66;;;0.18;99.68
37856;BME280;23694;43.274;26.924;2023-02-01T04:53:15;98870.31;;;0.20;99.99
37856;BME280;23694;43.274;26.924;2023-02-01T04:55:42;98863.81;;;0.07;100.00
37856;BME280;23694;43.274;26.924;2023-02-01T04:58:09;98879.94;;;0.14;100.00
37856;BME280;23694;43.274;26.924;2023-02-01T05:00:36;98869.94;;;0.03;100.00
37856;BME280;23694;43.274;26.924;2023-02-01T05:03:02;98870.56;;;0.11;100.00
37856;BME280;23694;43.274;26.924;2023-02-01T05:05:29;98868.78;;;0.13;100.00
37856;BME280;23694;43.274;26.924;2023-02-01T05:07:55;98861.31;;;0.04;100.00
37856;BME280;23694;43.274;26.924;2023-02-01T05:10:21;98866.41;;;0.06;100.00
37856;BME280;23694;43.274;26.924;2023-02-01T05:12:47;98862.84;;;0.11;100.00
37856;BME280;23694;43.274;26.924;2023-02-01T05:15:32;98864.72;;;0.05;100.00
37856;BME280;23694;43.274;26.924;2023-02-01T05:17:58;98868.28;;;-0.01;100.00
37856;BME280;23694;43.274;26.924;2023-02-01T05:20:24;98866.59;;;-0.02;100.00
37856;BME280;23694;43.274;26.924;2023-02-01T05:22:51;98867.44;;;0.00;100.00
37856;BME280;23694;43.274;26.924;2023-02-01T05:25:17;98858.91;;;-0.04;100.00
37856;BME280;23694;43.274;26.924;2023-02-01T05:27:43;98876.81;;;0.03;100.00
37856;BME280;23694;43.274;26.924;2023-02-01T05:30:09;98876.75;;;0.04;100.00
37856;BME280;23694;43.274;26.924;2023-02-01T05:32:35;98869.94;;;0.03;100.00
37856;BME280;23694;43.274;26.924;2023-02-01T05:35:02;98864.69;;;0.06;100.00
37856;BME280;23694;43.274;26.924;2023-02-01T05:37:28;98871.53;;;0.07;100.00
37856;BME280;23694;43.274;26.924;2023-02-01T05:39:54;98879.25;;;0.07;100.00
37856;BME280;23694;43.274;26.924;2023-02-01T05:42:20;98869.94;;;0.03;100.00
37856;BME280;23694;43.274;26.924;2023-02-01T05:44:46;98871.06;;;0.24;100.00
37856;BME280;23694;43.274;26.924;2023-02-01T05:47:12;98866.44;;;0.35;100.00
37856;BME280;23694;43.274;26.924;2023-02-01T05:49:38;98862.13;;;0.94;98.74
37856;BME280;23694;43.274;26.924;2023-02-01T05:52:04;98861.63;;;1.38;93.23
37856;BME280;23694;43.274;26.924;2023-02-01T05:54:31;98868.91;;;1.25;92.95
37856;BME280;23694;43.274;26.924;2023-02-01T05:56:57;98865.03;;;1.65;92.38
37856;BME280;23694;43.274;26.924;2023-02-01T05:59:23;98870.28;;;2.36;87.56
37856;BME280;23694;43.274;26.924;2023-02-01T06:01:49;98860.44;;;2.46;85.54
37856;BME280;23694;43.274;26.924;2023-02-01T06:04:15;98872.28;;;2.98;82.38
37856;BME280;23694;43.274;26.924;2023-02-01T06:06:41;98862.56;;;3.27;80.73
37856;BME280;23694;43.274;26.924;2023-02-01T06:09:07;98863.53;;;2.79;80.11
37856;BME280;23694;43.274;26.924;2023-02-01T06:11:33;98869.31;;;2.15;83.14
37856;BME280;23694;43.274;26.924;2023-02-01T06:13:59;98863.06;;;1.46;88.11
37856;BME280;23694;43.274;26.924;2023-02-01T06:16:26;98877.44;;;1.80;88.26
37856;BME280;23694;43.274;26.924;2023-02-01T06:18:52;98873.78;;;1.85;86.20
37856;BME280;23694;43.274;26.924;2023-02-01T06:21:19;98872.78;;;1.65;86.86
37856;BME280;23694;43.274;26.924;2023-02-01T06:23:53;98874.22;;;1.47;88.55
37856;BME280;23694;43.274;26.924;2023-02-01T06:26:20;98864.75;;;1.99;89.69
37856;BME280;23694;43.274;26.924;2023-02-01T06:28:46;98863.84;;;4.20;78.98
37856;BME280;23694;43.274;26.924;2023-02-01T06:31:12;98880.97;;;5.36;69.73
37856;BME280;23694;43.274;26.924;2023-02-01T06:33:39;98872.69;;;6.16;64.82
37856;BME280;23694;43.274;26.924;2023-02-01T06:36:07;98874.09;;;7.04;60.63
37856;BME280;23694;43.274;26.924;2023-02-01T06:38:33;98873.69;;;6.47;60.99
37856;BME280;23694;43.274;26.924;2023-02-01T06:41:03;98885.97;;;5.03;66.43
37856;BME280;23694;43.274;26.924;2023-02-01T06:43:29;98886.72;;;5.78;64.75
37856;BME280;23694;43.274;26.924;2023-02-01T06:46:04;98895.81;;;6.38;62.80
37856;BME280;23694;43.274;26.924;2023-02-01T06:48:31;98892.94;;;7.70;58.06
37856;BME280;23694;43.274;26.924;2023-02-01T06:50:57;98896.31;;;8.75;52.88
37856;BME280;23694;43.274;26.924;2023-02-01T06:53:23;98891.53;;;9.91;49.66
37856;BME280;23694;43.274;26.924;2023-02-01T06:56:00;98892.94;;;10.22;47.32
37856;BME280;23694;43.274;26.924;2023-02-01T06:58:31;98895.28;;;10.64;46.18
37856;BME280;23694;43.274;26.924;2023-02-01T07:01:00;98888.34;;;11.25;44.00
37856;BME280;23694;43.274;26.924;2023-02-01T07:03:29;98888.53;;;12.29;41.62
37856;BME280;23694;43.274;26.924;2023-02-01T07:05:56;98890.97;;;11.49;42.27
37856;BME280;23694;43.274;26.924;2023-02-01T07:08:27;98901.78;;;11.81;41.98
37856;BME280;23694;43.274;26.924;2023-02-01T07:10:53;98903.41;;;12.52;39.98
37856;BME280;23694;43.274;26.924;2023-02-01T07:13:19;98902.25;;;10.89;42.46
37856;BME280;23694;43.274;26.924;2023-02-01T07:15:45;98902.28;;;8.18;48.45
37856;BME280;23694;43.274;26.924;2023-02-01T07:18:14;98915.19;;;6.32;56.60
37856;BME280;23694;43.274;26.924;2023-02-01T07:20:41;98916.06;;;5.26;61.40
37856;BME280;23694;43.274;26.924;2023-02-01T07:23:11;98920.41;;;4.69;63.90
37856;BME280;23694;43.274;26.924;2023-02-01T07:25:37;98915.59;;;3.80;69.61
37856;BME280;23694;43.274;26.924;2023-02-01T07:28:03;98910.53;;;3.35;72.15
37856;BME280;23694;43.274;26.924;2023-02-01T07:30:29;98916.00;;;3.28;73.65
37856;BME280;23694;43.274;26.924;2023-02-01T07:32:55;98915.38;;;2.99;74.34
37856;BME280;23694;43.274;26.924;2023-02-01T07:35:25;98920.94;;;3.76;75.34
37856;BME280;23694;43.274;26.924;2023-02-01T07:37:51;98923.38;;;4.21;70.07
37856;BME280;23694;43.274;26.924;2023-02-01T07:40:17;98919.31;;;3.53;72.76
37856;BME280;23694;43.274;26.924;2023-02-01T07:42:44;98911.56;;;3.73;73.38
37856;BME280;23694;43.274;26.924;2023-02-01T07:45:10;98918.00;;;3.43;73.22
37856;BME280;23694;43.274;26.924;2023-02-01T07:47:36;98917.75;;;3.49;74.63
37856;BME280;23694;43.274;26.924;2023-02-01T07:50:02;98912.44;;;4.14;72.23
37856;BME280;23694;43.274;26.924;2023-02-01T07:52:28;98906.88;;;4.63;69.44
37856;BME280;23694;43.274;26.924;2023-02-01T07:54:55;98902.41;;;4.85;68.21
37856;BME280;23694;43.274;26.924;2023-02-01T07:57:21;98912.16;;;4.99;66.76
37856;BME280;23694;43.274;26.924;2023-02-01T07:59:47;98915.22;;;4.69;67.89
37856;BME280;23694;43.274;26.924;2023-02-01T08:02:31;98919.47;;;4.52;68.66
37856;BME280;23694;43.274;26.924;2023-02-01T08:04:57;98911.59;;;4.53;69.15
37856;BME280;23694;43.274;26.924;2023-02-01T08:07:23;98916.56;;;4.78;69.22
37856;BME280;23694;43.274;26.924;2023-02-01T08:09:49;98905.97;;;5.01;67.95
37856;BME280;23694;43.274;26.924;2023-02-01T08:12:16;98907.16;;;5.13;67.36
37856;BME280;23694;43.274;26.924;2023-02-01T08:14:42;98904.97;;;5.04;66.44
37856;BME280;23694;43.274;26.924;2023-02-01T08:17:08;98912.56;;;4.90;67.55
37856;BME280;23694;43.274;26.924;2023-02-01T08:19:34;98915.03;;;4.54;70.15
37856;BME280;23694;43.274;26.924;2023-02-01T08:22:00;98921.91;;;4.55;69.88
37856;BME280;23694;43.274;26.924;2023-02-01T08:24:27;98920.69;;;4.63;69.97
37856;BME280;23694;43.274;26.924;2023-02-01T08:26:53;98914.47;;;4.67;68.97
37856;BME280;23694;43.274;26.924;2023-02-01T08:29:19;98918.03;;;4.65;68.05
37856;BME280;23694;43.274;26.924;2023-02-01T08:31:45;98912.09;;;4.42;69.25
37856;BME280;23694;43.274;26.924;2023-02-01T08:34:11;98930.81;;;4.69;68.39
37856;BME280;23694;43.274;26.924;2023-02-01T08:36:38;98929.03;;;4.70;68.85
37856;BME280;23694;43.274;26.924;2023-02-01T08:39:04;98929.63;;;4.95;69.28
37856;BME280;23694;43.274;26.924;2023-02-01T08:41:34;98934.53;;;5.01;67.69
37856;BME280;23694;43.274;26.924;2023-02-01T08:44:00;98926.31;;;5.10;67.90
37856;BME280;23694;43.274;26.924;2023-02-01T08:46:27;98929.66;;;4.56;69.21
37856;BME280;23694;43.274;26.924;2023-02-01T08:48:53;98926.75;;;4.83;68.29
37856;BME280;23694;43.274;26.924;2023-02-01T08:51:20;98927.78;;;4.97;68.38
37856;BME280;23694;43.274;26.924;2023-02-01T08:53:47;98929.06;;;4.89;68.56
37856;BME280;23694;43.274;26.924;2023-02-01T08:56:15;98933.91;;;4.96;68.23
37856;BME280;23694;43.274;26.924;2023-02-01T08:58:42;98931.06;;;5.20;66.78
37856;BME280;23694;43.274;26.924;2023-02-01T09:01:10;98933.53;;;5.04;66.97
37856;BME280;23694;43.274;26.924;2023-02-01T09:03:38;98924.34;;;4.97;66.07
37856;BME280;23694;43.274;26.924;2023-02-01T09:06:07;98920.63;;;5.02;65.90
37856;BME280;23694;43.274;26.924;2023-02-01T09:08:34;98936.06;;;5.05;66.02
37856;BME280;23694;43.274;26.924;2023-02-01T09:11:01;98925.94;;;5.18;66.13
37856;BME280;23694;43.274;26.924;2023-02-01T09:13:28;98922.81;;;5.12;64.68
37856;BME280;23694;43.274;26.924;2023-02-01T09:15:54;98929.00;;;5.28;64.90
37856;BME280;23694;43.274;26.924;2023-02-01T09:18:20;98923.09;;;5.24;65.24
37856;BME280;23694;43.274;26.924;2023-02-01T09:20:46;98918.09;;;5.38;64.45
37856;BME280;23694;43.274;26.924;2023-02-01T09:23:12;98922.22;;;5.43;64.37
37856;BME280;23694;43.274;26.924;2023-02-01T09:25:39;98911.59;;;5.30;65.40
37856;BME280;23694;43.274;26.924;2023-02-01T09:28:05;98914.19;;;5.30;63.86
37856;BME280;23694;43.274;26.924;2023-02-01T09:30:36;98904.63;;;5.30;64.14
37856;BME280;23694;43.274;26.924;2023-02-01T09:33:02;98916.38;;;5.20;64.11
37856;BME280;23694;43.274;26.924;2023-02-01T09:35:29;98905.31;;;5.15;65.60
37856;BME280;23694;43.274;26.924;2023-02-01T09:37:55;98902.59;;;5.18;64.35
37856;BME280;23694;43.274;26.924;2023-02-01T09:40:21;98902.94;;;5.29;64.82
37856;BME280;23694;43.274;26.924;2023-02-01T09:43:11;98892.41;;;5.32;64.78
37856;BME280;23694;43.274;26.924;2023-02-01T09:48:17;98885.38;;;5.34;65.31
37856;BME280;23694;43.274;26.924;2023-02-01T09:50:50;98885.66;;;5.64;64.53
37856;BME280;23694;43.274;26.924;2023-02-01T09:55:50;98875.25;;;5.82;63.42
37856;BME280;23694;43.274;26.924;2023-02-01T09:58:24;98874.41;;;5.81;64.18
37856;BME280;23694;43.274;26.924;2023-02-01T10:00:55;98876.88;;;6.19;64.05
37856;BME280;23694;43.274;26.924;2023-02-01T10:03:43;98882.69;;;6.24;62.27
37856;BME280;23694;43.274;26.924;2023-02-01T10:09:29;98874.47;;;5.98;62.57
37856;BME280;23694;43.274;26.924;2023-02-01T10:22:45;98864.72;;;6.19;63.35
37856;BME280;23694;43.274;26.924;2023-02-01T10:25:37;98857.31;;;6.12;62.29
37856;BME280;23694;43.274;26.924;2023-02-01T10:28:13;98861.19;;;6.20;62.94
37856;BME280;23694;43.274;26.924;2023-02-01T10:30:46;98860.53;;;6.17;62.97
37856;BME280;23694;43.274;26.924;2023-02-01T10:33:17;98859.59;;;6.18;62.70
37856;BME280;23694;43.274;26.924;2023-02-01T10:35:52;98852.91;;;5.96;62.08
37856;BME280;23694;43.274;26.924;2023-02-01T10:38:27;98855.63;;;5.76;63.91
37856;BME280;23694;43.274;26.924;2023-02-01T10:40:57;98864.03;;;5.81;64.08
37856;BME280;23694;43.274;26.924;2023-02-01T10:43:25;98847.91;;;6.09;61.62
37856;BME280;23694;43.274;26.924;2023-02-01T10:45:51;98853.59;;;6.00;61.57
37856;BME280;23694;43.274;26.924;2023-02-01T10:48:17;98845.41;;;6.08;60.69
37856;BME280;23694;43.274;26.924;2023-02-01T10:50:53;98846.13;;;6.27;60.05
37856;BME280;23694;43.274;26.924;2023-02-01T10:55:54;98840.56;;;6.50;60.17
37856;BME280;23694;43.274;26.924;2023-02-01T10:58:28;98831.28;;;6.45;59.99
37856;BME280;23694;43.274;26.924;2023-02-01T11:01:07;98836.38;;;6.79;59.30
37856;BME280;23694;43.274;26.924;2023-02-01T11:03:45;98824.28;;;6.78;59.02
37856;BME280;23694;43.274;26.924;2023-02-01T11:06:35;98820.41;;;6.54;61.30
37856;BME280;23694;43.274;26.924;2023-02-01T11:14:23;98813.53;;;6.20;61.96
37856;BME280;23694;43.274;26.924;2023-02-01T11:16:58;98795.44;;;6.18;62.19
37856;BME280;23694;43.274;26.924;2023-02-01T11:19:26;98797.94;;;6.20;62.42
37856;BME280;23694;43.274;26.924;2023-02-01T11:21:58;98802.56;;;6.15;63.12
37856;BME280;23694;43.274;26.924;2023-02-01T11:24:28;98805.22;;;6.13;62.34
37856;BME280;23694;43.274;26.924;2023-02-01T11:27:00;98793.63;;;5.86;63.12
37856;BME280;23694;43.274;26.924;2023-02-01T11:29:39;98793.69;;;5.84;63.68
37856;BME280;23694;43.274;26.924;2023-02-01T11:32:08;98791.13;;;6.01;64.29
37856;BME280;23694;43.274;26.924;2023-02-01T11:37:32;98784.22;;;6.00;64.27
37856;BME280;23694;43.274;26.924;2023-02-01T11:40:04;98777.47;;;6.29;64.05
37856;BME280;23694;43.274;26.924;2023-02-01T11:42:53;98766.09;;;6.48;62.87
37856;BME280;23694;43.274;26.924;2023-02-01T11:45:32;98764.94;;;6.69;62.62
37856;BME280;23694;43.274;26.924;2023-02-01T11:48:01;98761.72;;;6.80;62.29
37856;BME280;23694;43.274;26.924;2023-02-01T11:53:25;98763.22;;;6.36;62.35
37856;BME280;23694;43.274;26.924;2023-02-01T11:56:22;98749.50;;;6.66;60.17
37856;BME280;23694;43.274;26.924;2023-02-01T12:09:52;98739.06;;;7.12;58.76
37856;BME280;23694;43.274;26.924;2023-02-01T12:23:31;98730.66;;;7.22;57.39
37856;BME280;23694;43.274;26.924;2023-02-01T12:26:34;98719.34;;;7.38;57.52
37856;BME280;23694;43.274;26.924;2023-02-01T12:39:57;98719.13;;;7.26;57.64
37856;BME280;23694;43.274;26.924;2023-02-01T12:47:29;98736.28;;;7.45;57.96
37856;BME280;23694;43.274;26.924;2023-02-01T12:50:05;98740.78;;;7.57;57.71
37856;BME280;23694;43.274;26.924;2023-02-01T12:52:46;98743.44;;;7.11;59.39
37856;BME280;23694;43.274;26.924;2023-02-01T12:55:27;98749.00;;;7.21;59.64
37856;BME280;23694;43.274;26.924;2023-02-01T12:58:06;98748.25;;;7.19;60.21
37856;BME280;23694;43.274;26.924;2023-02-01T13:00:43;98754.84;;;7.54;59.16
37856;BME280;23694;43.274;26.924;2023-02-01T13:06:17;98748.50;;;7.58;59.02
37856;BME280;23694;43.274;26.924;2023-02-01T13:08:56;98752.84;;;7.44;59.44
37856;BME280;23694;43.274;26.924;2023-02-01T13:11:29;98749.50;;;7.42;60.03
37856;BME280;23694;43.274;26.924;2023-02-01T13:14:10;98753.19;;;7.23;60.98
37856;BME280;23694;43.274;26.924;2023-02-01T13:16:44;98758.00;;;7.15;61.35
37856;BME280;23694;43.274;26.924;2023-02-01T13:25:02;98756.59;;;6.47;63.82
37856;BME280;23694;43.274;26.924;2023-02-01T13:27:30;98758.56;;;6.59;63.41
37856;BME280;23694;43.274;26.924;2023-02-01T13:35:38;98766.31;;;6.27;64.68
37856;BME280;23694;43.274;26.924;2023-02-01T13:43:30;98767.50;;;6.38;63.70
37856;BME280;23694;43.274;26.924;2023-02-01T13:46:04;98763.47;;;6.48;63.75
37856;BME280;23694;43.274;26.924;2023-02-01T13:48:53;98757.22;;;6.52;63.82
37856;BME280;23694;43.274;26.924;2023-02-01T13:51:43;98750.91;;;6.56;63.61
37856;BME280;23694;43.274;26.924;2023-02-01T13:56:49;98749.50;;;6.50;64.75
37856;BME280;23694;43.274;26.924;2023-02-01T13:59:52;98752.59;;;6.73;64.01
37856;BME280;23694;43.274;26.924;2023-02-01T14:13:37;98738.81;;;6.39;65.99
37856;BME280;23694;43.274;26.924;2023-02-01T14:21:33;98739.63;;;6.24;67.20
37856;BME280;23694;43.274;26.924;2023-02-01T14:24:23;98743.84;;;6.42;66.37
37856;BME280;23694;43.274;26.924;2023-02-01T14:26:52;98739.47;;;6.27;67.23
37856;BME280;23694;43.274;26.924;2023-02-01T14:29:26;98745.41;;;6.13;67.89
37856;BME280;23694;43.274;26.924;2023-02-01T14:32:17;98746.56;;;5.92;69.36
37856;BME280;23694;43.274;26.924;2023-02-01T14:39:55;98741.13;;;6.12;69.40
37856;BME280;23694;43.274;26.924;2023-02-01T14:47:45;98733.94;;;6.33;68.65
37856;BME280;23694;43.274;26.924;2023-02-01T15:00:56;98735.78;;;6.15;69.10
37856;BME280;23694;43.274;26.924;2023-02-01T15:06:42;98750.75;;;5.94;70.99
37856;BME280;23694;43.274;26.924;2023-02-01T15:09:16;98746.25;;;5.63;72.06
37856;BME280;23694;43.274;26.924;2023-02-01T15:14:39;98750.00;;;5.92;71.96
37856;BME280;23694;43.274;26.924;2023-02-01T15:19:57;98746.25;;;6.14;71.69
37856;BME280;23694;43.274;26.924;2023-02-01T15:22:24;98751.53;;;5.96;72.24
37856;BME280;23694;43.274;26.924;2023-02-01T15:24:59;98742.41;;;5.88;72.07
37856;BME280;23694;43.274;26.924;2023-02-01T15:27:28;98749.28;;;5.71;73.06
37856;BME280;23694;43.274;26.924;2023-02-01T15:30:06;98756.75;;;5.45;74.47
37856;BME280;23694;43.274;26.924;2023-02-01T15:32:37;98749.03;;;5.26;76.07
37856;BME280;23694;43.274;26.924;2023-02-01T15:35:05;98745.03;;;5.19;76.03
37856;BME280;23694;43.274;26.924;2023-02-01T15:37:31;98741.75;;;4.98;77.90
37856;BME280;23694;43.274;26.924;2023-02-01T15:42:56;98743.88;;;4.90;77.74
37856;BME280;23694;43.274;26.924;2023-02-01T15:45:28;98740.66;;;4.85;78.29
37856;BME280;23694;43.274;26.924;2023-02-01T15:47:57;98743.47;;;4.80;77.92
37856;BME280;23694;43.274;26.924;2023-02-01T15:50:24;98754.41;;;4.87;77.63
37856;BME280;23694;43.274;26.924;2023-02-01T15:52:52;98748.31;;;4.88;76.73
37856;BME280;23694;43.274;26.924;2023-02-01T15:57:59;98746.59;;;4.69;77.04
37856;BME280;23694;43.274;26.924;2023-02-01T16:00:30;98755.22;;;4.70;76.30
37856;BME280;23694;43.274;26.924;2023-02-01T16:03:01;98755.00;;;4.74;76.23
37856;BME280;23694;43.274;26.924;2023-02-01T16:05:38;98758.97;;;4.82;75.70
37856;BME280;23694;43.274;26.924;2023-02-01T16:08:11;98762.25;;;4.85;75.27
37856;BME280;23694;43.274;26.924;2023-02-01T16:10:41;98759.00;;;4.63;75.66
37856;BME280;23694;43.274;26.924;2023-02-01T16:13:08;98758.88;;;4.66;76.73
37856;BME280;23694;43.274;26.924;2023-02-01T16:15:34;98762.53;;;4.62;76.61